Accueil
METAR-TAF:

METAR-TAF

Aéroports :

Aéroport international de Malé

Malé, Maldives

latitude: 04-12N, longitude: 073-32E, altitude: 2 m

Observation

Le bulletin a été fait il y a 1 heure et 8 minutes, à 03:00 UTC
Vent 12 kt de sud-ouest
Température 28°C
Humidité 79%
Pression 1011 hPa
Visibilité 10 km ou plus
Quelques nuages à une hauteur de 1800 ft
Nuages fragmentés à une hauteur de 2500 ft

METAR: VRMM 250300Z 23012KT 9999 FEW018 BKN025 28/24 Q1011 TEMPO 5000 -SHRA

Heure: 09:08 (04:08 UTC)

Prévision

Le bulletin a été fait il y a 5 heures et 8 minutes, à 23:00 UTC
Prévision valable du 25 à 00 UTC au 26 à 06 UTC
Vent 11 kt de ouest
Visibilité 10 km ou plus
Quelques nuages à une hauteur de 1800 ft
Temporairement
du 25 à 03 UTC au 25 à 09 UTC
Visibilité: 5000 m
Quelques nuages à une hauteur de 1700 ft, Cumulonimbus.
faibles averses de pluie

TAF: VRMM 242300Z 2500/2606 28011KT 9999 FEW018 TEMPO 2503/2509 5000 -SHRA FEW017CB

Observations et prévisions météorologiques de plus de 4000 aéroports (messages METAR et TAF).

Les stations disponibles sont représentées par des disques jaunes et rouges sur la carte.

Passer la souris dessus pour voir le nom de la station.

Cliquer dessus pour voir les observations et prévisions météorologiques.

Pour changer de carte: cliquez sur les boutons verts avec une croix noire pour zoomer, sur le bouton vert avec un tiret pour effectuer un zoom arrière, ou sur les flèches vertes pour les cartes adjacentes.


METAR-TAF: